createdAt,value
2018-10-07T00:00:05.000Z,30.2
2018-10-07T00:02:05.000Z,30.1
2018-10-07T00:03:50.000Z,30
2018-10-07T00:05:05.000Z,29.9
2018-10-07T00:06:50.000Z,29.9
2018-10-07T00:08:05.000Z,29.9
2018-10-07T00:10:05.000Z,29.9
2018-10-07T00:12:05.000Z,29.9
2018-10-07T00:14:05.000Z,29.8
2018-10-07T00:15:05.000Z,29.8
2018-10-07T00:16:05.000Z,29.9
2018-10-07T00:18:05.000Z,29.9
2018-10-07T00:20:05.000Z,29.9
2018-10-07T00:21:05.000Z,29.9
2018-10-07T00:22:05.000Z,29.9
2018-10-07T00:23:05.000Z,30
2018-10-07T00:25:05.000Z,30
2018-10-07T00:27:05.000Z,30
2018-10-07T00:29:05.000Z,29.9
2018-10-07T00:30:50.000Z,29.9
2018-10-07T00:32:05.000Z,29.8
2018-10-07T00:34:05.000Z,29.9
2018-10-07T00:36:05.000Z,29.8
2018-10-07T00:38:06.000Z,29.8
2018-10-07T00:39:06.000Z,29.8
2018-10-07T00:40:06.000Z,29.8
2018-10-07T00:41:51.000Z,29.9
2018-10-07T00:43:06.000Z,29.9
2018-10-07T00:44:06.000Z,29.9
2018-10-07T00:46:06.000Z,30
2018-10-07T00:47:06.000Z,30
2018-10-07T00:49:06.000Z,30
2018-10-07T00:51:06.000Z,29.9
2018-10-07T00:52:06.000Z,29.9
2018-10-07T00:53:06.000Z,30
2018-10-07T00:55:06.000Z,30
2018-10-07T00:56:06.000Z,30.1
2018-10-07T00:58:06.000Z,30.1
2018-10-07T00:59:06.000Z,30.1
2018-10-07T01:01:06.000Z,30
2018-10-07T01:03:06.000Z,30
2018-10-07T01:05:06.000Z,29.9
2018-10-07T01:06:06.000Z,29.8
2018-10-07T01:08:06.000Z,29.8
2018-10-07T01:09:06.000Z,29.8
2018-10-07T01:11:06.000Z,29.8
2018-10-07T01:12:06.000Z,29.8
2018-10-07T01:13:06.000Z,29.9
2018-10-07T01:15:06.000Z,29.9
2018-10-07T01:16:06.000Z,30
2018-10-07T01:18:06.000Z,30
2018-10-07T01:20:06.000Z,30
2018-10-07T01:21:51.000Z,30
2018-10-07T01:23:06.000Z,29.9
2018-10-07T01:24:06.000Z,29.9
2018-10-07T01:25:51.000Z,30
2018-10-07T01:27:06.000Z,29.9
2018-10-07T01:29:06.000Z,29.9
2018-10-07T01:30:06.000Z,29.9
2018-10-07T01:32:06.000Z,29.9
2018-10-07T01:34:06.000Z,29.8
2018-10-07T01:35:06.000Z,29.8
2018-10-07T01:37:06.000Z,29.8
2018-10-07T01:38:06.000Z,29.8
2018-10-07T01:39:06.000Z,29.8
2018-10-07T01:40:06.000Z,29.9
2018-10-07T01:42:06.000Z,30
2018-10-07T01:43:06.000Z,30
2018-10-07T01:45:06.000Z,30
2018-10-07T01:47:06.000Z,30
2018-10-07T01:48:06.000Z,30
2018-10-07T01:50:06.000Z,30
2018-10-07T01:51:50.000Z,30
2018-10-07T01:53:06.000Z,29.9
2018-10-07T01:54:06.000Z,29.9
2018-10-07T01:56:06.000Z,30
2018-10-07T01:58:06.000Z,29.9
2018-10-07T01:59:06.000Z,29.9
2018-10-07T02:01:06.000Z,30
2018-10-07T02:03:06.000Z,29.9
2018-10-07T02:04:06.000Z,29.9
2018-10-07T02:06:06.000Z,30
2018-10-07T02:08:06.000Z,29.9
2018-10-07T02:09:06.000Z,30
2018-10-07T02:10:06.000Z,30
2018-10-07T02:11:06.000Z,30
2018-10-07T02:13:06.000Z,30.1
2018-10-07T02:15:06.000Z,30
2018-10-07T02:16:06.000Z,29.9
2018-10-07T02:17:06.000Z,30
2018-10-07T02:19:06.000Z,30
2018-10-07T02:21:06.000Z,29.9
2018-10-07T02:23:06.000Z,29.9
2018-10-07T02:25:06.000Z,29.8
2018-10-07T02:26:06.000Z,29.8
2018-10-07T02:28:06.000Z,29.9
2018-10-07T02:30:06.000Z,29.8
2018-10-07T02:31:06.000Z,29.9
2018-10-07T02:32:50.000Z,29.9
2018-10-07T02:34:06.000Z,29.9
2018-10-07T02:35:06.000Z,29.9
2018-10-07T02:37:06.000Z,29.9
2018-10-07T02:38:06.000Z,29.9
2018-10-07T02:40:06.000Z,29.9
2018-10-07T02:42:06.000Z,29.8
2018-10-07T02:43:50.000Z,29.8
2018-10-07T02:45:05.000Z,29.8
2018-10-07T02:46:05.000Z,29.8
2018-10-07T02:48:05.000Z,29.8
2018-10-07T02:49:05.000Z,29.9
2018-10-07T02:51:05.000Z,29.9
2018-10-07T02:52:05.000Z,29.9
2018-10-07T02:54:05.000Z,29.9
2018-10-07T02:55:05.000Z,29.9
2018-10-07T02:57:05.000Z,29.9
2018-10-07T02:58:05.000Z,29.9
2018-10-07T02:59:05.000Z,29.9
2018-10-07T03:01:05.000Z,29.9
2018-10-07T03:02:05.000Z,30
2018-10-07T03:04:05.000Z,30
2018-10-07T03:05:05.000Z,30
2018-10-07T03:07:05.000Z,30
2018-10-07T03:09:05.000Z,29.9
2018-10-07T03:10:05.000Z,29.9
2018-10-07T03:12:05.000Z,29.9
2018-10-07T03:13:05.000Z,29.9
2018-10-07T03:15:05.000Z,29.8
2018-10-07T03:16:05.000Z,29.8
2018-10-07T03:17:05.000Z,29.9
2018-10-07T03:19:05.000Z,29.9
2018-10-07T03:20:05.000Z,29.9
2018-10-07T03:21:05.000Z,30
2018-10-07T03:22:05.000Z,30
2018-10-07T03:23:50.000Z,30.1
2018-10-07T03:25:05.000Z,30
2018-10-07T03:27:05.000Z,29.9
2018-10-07T03:29:05.000Z,29.8
2018-10-07T03:30:05.000Z,29.8
2018-10-07T03:32:05.000Z,29.8
2018-10-07T03:34:05.000Z,29.7
2018-10-07T03:35:50.000Z,29.7
2018-10-07T03:37:05.000Z,29.7
2018-10-07T03:38:05.000Z,29.7
2018-10-07T03:40:05.000Z,29.7
2018-10-07T03:42:05.000Z,29.6
2018-10-07T03:44:05.000Z,29.6
2018-10-07T03:46:05.000Z,29.6
2018-10-07T03:47:05.000Z,29.6
2018-10-07T03:48:05.000Z,29.7
2018-10-07T03:50:05.000Z,29.7
2018-10-07T03:52:05.000Z,29.7
2018-10-07T03:53:05.000Z,29.7
2018-10-07T03:55:05.000Z,29.7
2018-10-07T03:56:05.000Z,29.8
2018-10-07T03:58:05.000Z,29.8
2018-10-07T04:00:05.000Z,29.7
2018-10-07T04:01:05.000Z,29.6
2018-10-07T04:02:05.000Z,29.6
2018-10-07T04:03:05.000Z,29.7
2018-10-07T04:05:05.000Z,29.8
2018-10-07T04:07:05.000Z,29.8
2018-10-07T04:08:50.000Z,29.8
2018-10-07T04:10:05.000Z,29.7
2018-10-07T04:12:05.000Z,29.7
2018-10-07T04:13:05.000Z,29.7
2018-10-07T04:15:05.000Z,29.8
2018-10-07T04:17:05.000Z,29.7
2018-10-07T04:18:05.000Z,29.7
2018-10-07T04:19:05.000Z,29.7
2018-10-07T04:21:05.000Z,29.8
2018-10-07T04:23:05.000Z,29.7
2018-10-07T04:24:05.000Z,29.7
2018-10-07T04:26:05.000Z,29.7
2018-10-07T04:27:50.000Z,29.7
2018-10-07T04:29:05.000Z,29.6
2018-10-07T04:31:05.000Z,29.6
2018-10-07T04:32:05.000Z,29.7
2018-10-07T04:33:50.000Z,29.7
2018-10-07T04:35:05.000Z,29.7
2018-10-07T04:36:05.000Z,29.7
2018-10-07T04:37:05.000Z,29.7
2018-10-07T04:38:05.000Z,29.8
2018-10-07T04:39:05.000Z,29.8
2018-10-07T04:41:05.000Z,29.8
2018-10-07T04:42:05.000Z,29.8
2018-10-07T04:44:05.000Z,29.8
2018-10-07T04:46:05.000Z,29.7
2018-10-07T04:47:05.000Z,29.7
2018-10-07T04:48:05.000Z,29.7
2018-10-07T04:49:05.000Z,29.7
2018-10-07T04:51:05.000Z,29.8
2018-10-07T04:53:05.000Z,29.8
2018-10-07T04:55:05.000Z,29.7
2018-10-07T04:56:05.000Z,29.7
2018-10-07T04:58:05.000Z,29.8
2018-10-07T04:59:05.000Z,29.8
2018-10-07T05:00:50.000Z,29.8
2018-10-07T05:02:05.000Z,29.7
2018-10-07T05:03:05.000Z,29.7
2018-10-07T05:05:05.000Z,29.7
2018-10-07T05:06:05.000Z,29.7
2018-10-07T05:08:05.000Z,29.7
2018-10-07T05:10:05.000Z,29.6
2018-10-07T05:11:05.000Z,29.6
2018-10-07T05:13:05.000Z,29.7
2018-10-07T05:14:05.000Z,29.7
2018-10-07T05:16:05.000Z,29.7
2018-10-07T05:17:05.000Z,29.8
2018-10-07T05:19:05.000Z,29.8
2018-10-07T05:21:05.000Z,29.7
2018-10-07T05:22:05.000Z,29.7
2018-10-07T05:24:05.000Z,29.7
2018-10-07T05:25:05.000Z,29.7
2018-10-07T05:27:05.000Z,29.8
2018-10-07T05:29:05.000Z,29.7
2018-10-07T05:31:05.000Z,29.7
2018-10-07T05:33:05.000Z,29.6
2018-10-07T05:35:05.000Z,29.5
2018-10-07T05:37:05.000Z,29.5
2018-10-07T05:39:05.000Z,29.5
2018-10-07T05:41:05.000Z,29.5
2018-10-07T05:43:05.000Z,29.5
2018-10-07T05:45:05.000Z,29.5
2018-10-07T05:47:05.000Z,29.5
2018-10-07T05:49:05.000Z,29.5
2018-10-07T05:51:05.000Z,29.5
2018-10-07T05:52:05.000Z,29.5
2018-10-07T05:54:05.000Z,29.5
2018-10-07T05:55:50.000Z,29.5
2018-10-07T05:57:06.000Z,29.5
2018-10-07T05:58:06.000Z,29.5
2018-10-07T06:00:06.000Z,29.6
2018-10-07T06:02:06.000Z,29.6
2018-10-07T06:03:06.000Z,29.6
2018-10-07T06:05:06.000Z,29.6
2018-10-07T06:07:06.000Z,29.6
2018-10-07T06:09:06.000Z,29.6
2018-10-07T06:11:06.000Z,29.6
2018-10-07T06:13:06.000Z,29.5
2018-10-07T06:14:06.000Z,29.5
2018-10-07T06:15:06.000Z,29.6
2018-10-07T06:16:06.000Z,29.6
2018-10-07T06:17:50.000Z,29.7
2018-10-07T06:19:06.000Z,29.6
2018-10-07T06:20:06.000Z,29.6
2018-10-07T06:22:06.000Z,29.7
2018-10-07T06:23:06.000Z,29.7
2018-10-07T06:24:06.000Z,29.7
2018-10-07T06:25:06.000Z,29.8
2018-10-07T06:27:06.000Z,29.8
2018-10-07T06:29:06.000Z,29.7
2018-10-07T06:31:06.000Z,29.7
2018-10-07T06:33:06.000Z,29.6
2018-10-07T06:34:06.000Z,29.6
2018-10-07T06:36:06.000Z,29.6
2018-10-07T06:37:06.000Z,29.6
2018-10-07T06:38:06.000Z,29.7
2018-10-07T06:39:06.000Z,29.7
2018-10-07T06:41:06.000Z,29.7
2018-10-07T06:42:06.000Z,29.7
2018-10-07T06:44:06.000Z,29.8
2018-10-07T06:45:06.000Z,29.8
2018-10-07T06:47:06.000Z,29.8
2018-10-07T06:48:06.000Z,29.9
2018-10-07T06:49:06.000Z,29.9
2018-10-07T06:50:06.000Z,29.9
2018-10-07T06:52:06.000Z,30
2018-10-07T06:54:06.000Z,29.9
2018-10-07T06:56:06.000Z,29.9
2018-10-07T06:57:06.000Z,29.9
2018-10-07T06:59:06.000Z,29.9
2018-10-07T07:01:06.000Z,29.9
2018-10-07T07:03:06.000Z,29.8
2018-10-07T07:04:06.000Z,29.8
2018-10-07T07:05:06.000Z,29.9
2018-10-07T07:06:06.000Z,29.9
2018-10-07T07:08:06.000Z,30
2018-10-07T07:09:06.000Z,30
2018-10-07T07:11:06.000Z,30
2018-10-07T07:12:06.000Z,30
2018-10-07T07:13:06.000Z,30.1
2018-10-07T07:15:06.000Z,30.1
2018-10-07T07:17:06.000Z,30
2018-10-07T07:19:06.000Z,29.9
2018-10-07T07:21:06.000Z,29.8
2018-10-07T07:22:06.000Z,29.7
2018-10-07T07:24:06.000Z,29.7
2018-10-07T07:26:06.000Z,29.7
2018-10-07T07:28:06.000Z,29.7
2018-10-07T07:29:06.000Z,29.7
2018-10-07T07:30:06.000Z,29.8
2018-10-07T07:31:06.000Z,29.8
2018-10-07T07:33:06.000Z,29.9
2018-10-07T07:34:06.000Z,29.9
2018-10-07T07:36:06.000Z,29.9
2018-10-07T07:37:06.000Z,29.9
2018-10-07T07:38:51.000Z,29.9
2018-10-07T07:40:06.000Z,29.9
2018-10-07T07:42:06.000Z,29.8
2018-10-07T07:44:06.000Z,29.8
2018-10-07T07:46:06.000Z,29.8
2018-10-07T07:48:06.000Z,29.8
2018-10-07T07:49:06.000Z,29.8
2018-10-07T07:51:06.000Z,29.9
2018-10-07T07:52:06.000Z,29.9
2018-10-07T07:53:51.000Z,30
2018-10-07T07:55:06.000Z,29.9
2018-10-07T07:57:06.000Z,30
2018-10-07T07:59:06.000Z,30
2018-10-07T08:01:06.000Z,30
2018-10-07T08:02:06.000Z,30
2018-10-07T08:04:06.000Z,30.2
2018-10-07T08:06:06.000Z,30.2
2018-10-07T08:07:06.000Z,30.3
2018-10-07T08:09:06.000Z,30.4
2018-10-07T08:10:06.000Z,30.5
2018-10-07T08:12:06.000Z,30.6
2018-10-07T08:14:06.000Z,30.7
2018-10-07T08:16:06.000Z,30.7
2018-10-07T08:18:06.000Z,30.7
2018-10-07T08:20:06.000Z,30.8
2018-10-07T08:21:50.000Z,30.9
2018-10-07T08:23:06.000Z,30.9
2018-10-07T08:24:06.000Z,31
2018-10-07T08:26:06.000Z,31.1
2018-10-07T08:27:06.000Z,31.2
2018-10-07T08:29:06.000Z,31.4
2018-10-07T08:31:06.000Z,31.5
2018-10-07T08:33:06.000Z,31.5
2018-10-07T08:34:06.000Z,31.6
2018-10-07T08:36:06.000Z,31.7
2018-10-07T08:37:06.000Z,31.8
2018-10-07T08:39:06.000Z,31.9
2018-10-07T08:41:06.000Z,32
2018-10-07T08:43:06.000Z,32
2018-10-07T08:44:06.000Z,32
2018-10-07T08:46:06.000Z,32.1
2018-10-07T08:47:06.000Z,32.1
2018-10-07T08:48:06.000Z,32.2
2018-10-07T08:49:06.000Z,32.2
2018-10-07T08:50:50.000Z,32
2018-10-07T08:52:06.000Z,31.9
2018-10-07T08:53:06.000Z,31.8
2018-10-07T08:55:06.000Z,31.7
2018-10-07T08:56:06.000Z,31.6
2018-10-07T08:58:06.000Z,31.5
2018-10-07T08:59:50.000Z,31.4
2018-10-07T09:01:06.000Z,31.3
2018-10-07T09:02:06.000Z,31.3
2018-10-07T09:04:06.000Z,31.2
2018-10-07T09:05:06.000Z,31.2
2018-10-07T09:07:06.000Z,31.2
2018-10-07T09:08:06.000Z,31.4
2018-10-07T09:09:06.000Z,31.5
2018-10-07T09:11:06.000Z,31.8
2018-10-07T09:12:06.000Z,31.9
2018-10-07T09:14:06.000Z,32
2018-10-07T09:16:06.000Z,32.1
2018-10-07T09:18:06.000Z,32.1
2018-10-07T09:19:06.000Z,32
2018-10-07T09:21:06.000Z,31.9
2018-10-07T09:22:06.000Z,31.8
2018-10-07T09:23:06.000Z,31.8
2018-10-07T09:25:06.000Z,31.7
2018-10-07T09:27:06.000Z,31.6
2018-10-07T09:29:06.000Z,31.5
2018-10-07T09:30:06.000Z,31.4
2018-10-07T09:31:06.000Z,31.4
2018-10-07T09:33:06.000Z,31.4
2018-10-07T09:34:06.000Z,31.4
2018-10-07T09:36:06.000Z,31.3
2018-10-07T09:37:06.000Z,31.3
2018-10-07T09:39:06.000Z,31.2
2018-10-07T09:40:06.000Z,31.2
2018-10-07T09:42:06.000Z,31.1
2018-10-07T09:43:06.000Z,31.1
2018-10-07T09:44:06.000Z,31.2
2018-10-07T09:45:06.000Z,31.2
2018-10-07T09:47:06.000Z,31.2
2018-10-07T09:49:06.000Z,31.2
2018-10-07T09:51:06.000Z,31
2018-10-07T09:52:06.000Z,31
2018-10-07T09:53:06.000Z,31
2018-10-07T09:55:06.000Z,31
2018-10-07T09:57:06.000Z,30.9
2018-10-07T09:59:06.000Z,30.9
2018-10-07T10:00:06.000Z,30.9
2018-10-07T10:01:06.000Z,30.9
2018-10-07T10:02:06.000Z,31
2018-10-07T10:03:06.000Z,31.2
2018-10-07T10:05:06.000Z,33.4
2018-10-07T10:06:06.000Z,34.6
2018-10-07T10:08:06.000Z,36.5
2018-10-07T10:09:06.000Z,37.3
2018-10-07T10:11:06.000Z,38.5
2018-10-07T10:12:06.000Z,39
2018-10-07T10:14:06.000Z,39.1
2018-10-07T10:16:06.000Z,37.5
2018-10-07T10:18:06.000Z,35.9
2018-10-07T10:20:06.000Z,34.8
2018-10-07T10:22:06.000Z,34
2018-10-07T10:23:06.000Z,33.6
2018-10-07T10:24:06.000Z,33.4
2018-10-07T10:26:06.000Z,33
2018-10-07T10:27:06.000Z,32.9
2018-10-07T10:28:50.000Z,32.7
2018-10-07T10:30:06.000Z,32.5
2018-10-07T10:32:06.000Z,32.2
2018-10-07T10:33:06.000Z,32.1
2018-10-07T10:35:06.000Z,31.9
2018-10-07T10:37:06.000Z,31.8
2018-10-07T10:39:06.000Z,31.6
2018-10-07T10:40:06.000Z,31.5
2018-10-07T10:42:06.000Z,31.5
2018-10-07T10:43:06.000Z,31.5
2018-10-07T10:45:06.000Z,31.4
2018-10-07T10:47:06.000Z,31.4
2018-10-07T10:48:06.000Z,31.4
2018-10-07T10:50:06.000Z,31.3
2018-10-07T10:51:06.000Z,31.3
2018-10-07T10:53:06.000Z,31.3
2018-10-07T10:55:06.000Z,31.2
2018-10-07T10:57:06.000Z,31.1
2018-10-07T10:59:06.000Z,31.1
2018-10-07T11:01:06.000Z,31
2018-10-07T11:03:06.000Z,30.9
2018-10-07T11:05:06.000Z,30.8
2018-10-07T11:06:06.000Z,30.8
2018-10-07T11:08:06.000Z,30.8
2018-10-07T11:09:06.000Z,30.9
2018-10-07T11:11:06.000Z,30.9
2018-10-07T11:13:06.000Z,30.9
2018-10-07T11:14:06.000Z,30.9
2018-10-07T11:16:06.000Z,30.9
2018-10-07T11:17:06.000Z,31
2018-10-07T11:19:06.000Z,31
2018-10-07T11:20:06.000Z,31
2018-10-07T11:21:06.000Z,31
2018-10-07T11:23:06.000Z,31.1
2018-10-07T11:25:06.000Z,31
2018-10-07T11:26:06.000Z,30.9
2018-10-07T11:28:06.000Z,32.9
2018-10-07T11:29:51.000Z,35.6
2018-10-07T11:31:06.000Z,37.3
2018-10-07T11:32:06.000Z,38.4
2018-10-07T11:34:06.000Z,40.2
2018-10-07T11:35:06.000Z,40.9
2018-10-07T11:37:06.000Z,42.1
2018-10-07T11:39:06.000Z,40.6
2018-10-07T11:40:06.000Z,39.5
2018-10-07T11:41:06.000Z,38.5
2018-10-07T11:42:06.000Z,37.7
2018-10-07T11:44:06.000Z,36.3
2018-10-07T11:46:06.000Z,35.3
2018-10-07T11:48:06.000Z,34.5
2018-10-07T11:50:06.000Z,33.8
2018-10-07T11:51:06.000Z,33.6
2018-10-07T11:53:06.000Z,33.1
2018-10-07T11:55:06.000Z,32.8
2018-10-07T11:56:51.000Z,32.6
2018-10-07T11:58:06.000Z,32.4
2018-10-07T12:00:06.000Z,32.2
2018-10-07T12:01:06.000Z,32.2
2018-10-07T12:02:06.000Z,32.2
2018-10-07T12:04:06.000Z,32.1
2018-10-07T12:06:06.000Z,32
2018-10-07T12:08:06.000Z,31.9
2018-10-07T12:09:06.000Z,31.8
2018-10-07T12:11:06.000Z,31.7
2018-10-07T12:13:06.000Z,31.6
2018-10-07T12:14:06.000Z,31.6
2018-10-07T12:16:06.000Z,31.6
2018-10-07T12:17:06.000Z,31.6
2018-10-07T12:18:06.000Z,31.6
2018-10-07T12:20:06.000Z,31.6
2018-10-07T12:21:06.000Z,31.6
2018-10-07T12:22:06.000Z,31.6
2018-10-07T12:24:06.000Z,31.6
2018-10-07T12:25:06.000Z,31.5
2018-10-07T12:26:06.000Z,31.5
2018-10-07T12:28:06.000Z,31.5
2018-10-07T12:29:06.000Z,31.5
2018-10-07T12:30:06.000Z,31.5
2018-10-07T12:31:06.000Z,31.5
2018-10-07T12:32:06.000Z,31.6
2018-10-07T12:34:06.000Z,31.6
2018-10-07T12:36:06.000Z,31.5
2018-10-07T12:38:06.000Z,31.4
2018-10-07T12:39:06.000Z,31.4
2018-10-07T12:41:06.000Z,31.4
2018-10-07T12:42:06.000Z,31.3
2018-10-07T12:44:06.000Z,31.4
2018-10-07T12:46:06.000Z,31.3
2018-10-07T12:47:06.000Z,31.3
2018-10-07T12:48:06.000Z,31.3
2018-10-07T12:49:06.000Z,31.3
2018-10-07T12:51:06.000Z,31.3
2018-10-07T12:53:06.000Z,31.2
2018-10-07T12:54:51.000Z,31.2
2018-10-07T12:56:06.000Z,31.1
2018-10-07T12:58:06.000Z,31.1
2018-10-07T12:59:06.000Z,31.1
2018-10-07T13:00:06.000Z,31.2
2018-10-07T13:02:06.000Z,31.2
2018-10-07T13:04:06.000Z,31.2
2018-10-07T13:05:06.000Z,31.1
2018-10-07T13:06:06.000Z,31.2
2018-10-07T13:08:06.000Z,31.2
2018-10-07T13:10:06.000Z,31.1
2018-10-07T13:11:06.000Z,31.1
2018-10-07T13:13:06.000Z,31.1
2018-10-07T13:15:06.000Z,31
2018-10-07T13:16:06.000Z,31
2018-10-07T13:18:06.000Z,31
2018-10-07T13:20:06.000Z,31
2018-10-07T13:21:06.000Z,31
2018-10-07T13:23:06.000Z,31.1
2018-10-07T13:25:06.000Z,31
2018-10-07T13:27:06.000Z,31
2018-10-07T13:29:06.000Z,31
2018-10-07T13:31:06.000Z,31
2018-10-07T13:33:06.000Z,31.1
2018-10-07T13:35:06.000Z,31.1
2018-10-07T13:37:06.000Z,31.1
2018-10-07T13:38:06.000Z,31.2
2018-10-07T13:39:06.000Z,31.5
2018-10-07T13:41:06.000Z,32.2
2018-10-07T13:43:06.000Z,33.4
2018-10-07T13:44:06.000Z,34
2018-10-07T13:46:06.000Z,35.3
2018-10-07T13:47:06.000Z,35.8
2018-10-07T13:48:51.000Z,36.2
2018-10-07T13:50:06.000Z,36.3
2018-10-07T13:51:06.000Z,36.3
2018-10-07T13:52:06.000Z,36.2
2018-10-07T13:54:06.000Z,35.3
2018-10-07T13:56:06.000Z,34.4
2018-10-07T13:57:06.000Z,34
2018-10-07T13:58:06.000Z,33.7
2018-10-07T14:00:06.000Z,33.2
2018-10-07T14:01:06.000Z,33
2018-10-07T14:03:06.000Z,32.7
2018-10-07T14:05:06.000Z,32.4
2018-10-07T14:06:06.000Z,32.2
2018-10-07T14:08:06.000Z,32
2018-10-07T14:10:06.000Z,31.8
2018-10-07T14:11:06.000Z,31.8
2018-10-07T14:13:06.000Z,31.7
2018-10-07T14:14:06.000Z,31.6
2018-10-07T14:15:06.000Z,31.6
2018-10-07T14:17:06.000Z,31.6
2018-10-07T14:18:06.000Z,31.6
2018-10-07T14:20:06.000Z,31.5
2018-10-07T14:22:06.000Z,31.5
2018-10-07T14:24:06.000Z,31.4
2018-10-07T14:25:06.000Z,31.3
2018-10-07T14:26:06.000Z,31.4
2018-10-07T14:28:06.000Z,31.3
2018-10-07T14:30:06.000Z,31.3
2018-10-07T14:31:06.000Z,31.3
2018-10-07T14:33:06.000Z,31.2
2018-10-07T14:34:06.000Z,31.2
2018-10-07T14:37:06.000Z,31.2
2018-10-07T14:39:06.000Z,31
2018-10-07T14:40:06.000Z,31
2018-10-07T14:42:06.000Z,31
2018-10-07T14:43:06.000Z,31
2018-10-07T14:45:06.000Z,31
2018-10-07T14:46:06.000Z,31
2018-10-07T14:48:06.000Z,31
2018-10-07T14:49:50.000Z,30.9
2018-10-07T14:51:06.000Z,30.9
2018-10-07T14:52:06.000Z,30.9
2018-10-07T14:54:06.000Z,30.9
2018-10-07T14:55:06.000Z,30.9
2018-10-07T14:56:06.000Z,30.9
2018-10-07T14:58:06.000Z,30.9
2018-10-07T14:59:06.000Z,30.9
2018-10-07T15:01:06.000Z,30.8
2018-10-07T15:02:06.000Z,30.8
2018-10-07T15:04:06.000Z,30.8
2018-10-07T15:06:06.000Z,30.8
2018-10-07T15:07:06.000Z,30.8
2018-10-07T15:09:06.000Z,30.8
2018-10-07T15:10:06.000Z,30.7
2018-10-07T15:11:50.000Z,30.8
2018-10-07T15:13:06.000Z,30.8
2018-10-07T15:15:06.000Z,30.7
2018-10-07T15:16:06.000Z,30.7
2018-10-07T15:17:06.000Z,30.8
2018-10-07T15:19:06.000Z,30.8
2018-10-07T15:20:06.000Z,30.8
2018-10-07T15:22:06.000Z,30.8
2018-10-07T15:24:06.000Z,30.7
2018-10-07T15:25:06.000Z,30.7
2018-10-07T15:26:06.000Z,30.8
2018-10-07T15:28:06.000Z,30.8
2018-10-07T15:30:05.000Z,30.7
2018-10-07T15:31:05.000Z,30.7
2018-10-07T15:32:05.000Z,30.7
2018-10-07T15:33:05.000Z,30.7
2018-10-07T15:35:05.000Z,30.8
2018-10-07T15:36:50.000Z,30.7
2018-10-07T15:38:05.000Z,30.7
2018-10-07T15:40:05.000Z,30.6
2018-10-07T15:41:05.000Z,30.6
2018-10-07T15:42:05.000Z,30.7
2018-10-07T15:43:50.000Z,30.7
2018-10-07T15:45:05.000Z,30.7
2018-10-07T15:47:05.000Z,30.7
2018-10-07T15:49:05.000Z,30.6
2018-10-07T15:51:05.000Z,30.6
2018-10-07T15:52:05.000Z,30.6
2018-10-07T15:54:05.000Z,30.6
2018-10-07T15:56:05.000Z,30.6
2018-10-07T15:58:05.000Z,30.5
2018-10-07T15:59:05.000Z,30.5
2018-10-07T16:00:05.000Z,30.6
2018-10-07T16:01:05.000Z,30.7
2018-10-07T16:03:05.000Z,30.8
2018-10-07T16:05:05.000Z,30.7
2018-10-07T16:07:05.000Z,30.6
2018-10-07T16:09:05.000Z,30.6
2018-10-07T16:10:05.000Z,30.6
2018-10-07T16:12:05.000Z,30.5
2018-10-07T16:14:05.000Z,30.5
2018-10-07T16:15:05.000Z,30.5
2018-10-07T16:17:05.000Z,30.5
2018-10-07T16:18:05.000Z,30.6
2018-10-07T16:20:05.000Z,30.6
2018-10-07T16:21:05.000Z,30.6
2018-10-07T16:23:05.000Z,30.7
2018-10-07T16:24:05.000Z,30.7
2018-10-07T16:26:05.000Z,30.7
2018-10-07T16:27:05.000Z,30.7
2018-10-07T16:29:05.000Z,30.6
2018-10-07T16:30:05.000Z,30.6
2018-10-07T16:31:05.000Z,30.6
2018-10-07T16:32:05.000Z,30.7
2018-10-07T16:33:51.000Z,30.7
2018-10-07T16:35:06.000Z,30.7
2018-10-07T16:37:06.000Z,30.6
2018-10-07T16:38:06.000Z,30.6
2018-10-07T16:40:06.000Z,30.6
2018-10-07T16:41:06.000Z,30.6
2018-10-07T16:42:06.000Z,30.6
2018-10-07T16:43:06.000Z,30.6
2018-10-07T16:45:06.000Z,30.6
2018-10-07T16:47:06.000Z,30.5
2018-10-07T16:49:06.000Z,30.4
2018-10-07T16:51:06.000Z,30.3
2018-10-07T16:53:06.000Z,30.2
2018-10-07T16:55:06.000Z,30.2
2018-10-07T16:56:06.000Z,30.2
2018-10-07T16:58:06.000Z,30.2
2018-10-07T17:00:06.000Z,30.2
2018-10-07T17:01:51.000Z,30.2
2018-10-07T17:03:06.000Z,30.2
2018-10-07T17:05:06.000Z,30.1
2018-10-07T17:06:06.000Z,30.1
2018-10-07T17:08:06.000Z,30.1
2018-10-07T17:09:06.000Z,30.1
2018-10-07T17:10:06.000Z,30.2
2018-10-07T17:11:06.000Z,30.2
2018-10-07T17:13:06.000Z,30.2
2018-10-07T17:15:06.000Z,30.1
2018-10-07T17:16:06.000Z,30.1
2018-10-07T17:17:06.000Z,30.1
2018-10-07T17:19:06.000Z,30.1
2018-10-07T17:20:06.000Z,30.1
2018-10-07T17:21:06.000Z,30.2
2018-10-07T17:23:06.000Z,30.2
2018-10-07T17:24:06.000Z,30.2
2018-10-07T17:26:06.000Z,30.3
2018-10-07T17:28:06.000Z,30.2
2018-10-07T17:30:06.000Z,30.2
2018-10-07T17:31:06.000Z,30.2
2018-10-07T17:33:06.000Z,30.2
2018-10-07T17:34:06.000Z,30.2
2018-10-07T17:35:06.000Z,30.2
2018-10-07T17:37:06.000Z,30.3
2018-10-07T17:38:06.000Z,30.3
2018-10-07T17:40:06.000Z,30.2
2018-10-07T17:42:06.000Z,30.1
2018-10-07T17:44:06.000Z,30
2018-10-07T17:45:06.000Z,30
2018-10-07T17:47:06.000Z,30
2018-10-07T17:48:06.000Z,29.9
2018-10-07T17:50:06.000Z,30
2018-10-07T17:52:06.000Z,30
2018-10-07T17:53:06.000Z,30
2018-10-07T17:55:06.000Z,30
2018-10-07T17:56:51.000Z,30
2018-10-07T17:58:06.000Z,30
2018-10-07T17:59:06.000Z,30
2018-10-07T18:00:06.000Z,30.1
2018-10-07T18:02:06.000Z,30.1
2018-10-07T18:03:06.000Z,30.1
2018-10-07T18:04:51.000Z,30.2
2018-10-07T18:06:06.000Z,30.1
2018-10-07T18:07:06.000Z,30.1
2018-10-07T18:08:06.000Z,30.2
2018-10-07T18:09:06.000Z,30.2
2018-10-07T18:11:06.000Z,30.2
2018-10-07T18:12:06.000Z,30.2
2018-10-07T18:14:06.000Z,30.1
2018-10-07T18:15:06.000Z,30.1
2018-10-07T18:16:06.000Z,30.1
2018-10-07T18:18:06.000Z,30.1
2018-10-07T18:19:06.000Z,30.1
2018-10-07T18:20:06.000Z,30.2
2018-10-07T18:22:06.000Z,30.2
2018-10-07T18:24:06.000Z,30.1
2018-10-07T18:26:06.000Z,30.1
2018-10-07T18:28:06.000Z,30
2018-10-07T18:29:06.000Z,30
2018-10-07T18:31:06.000Z,30
2018-10-07T18:32:06.000Z,30
2018-10-07T18:34:06.000Z,30
2018-10-07T18:36:06.000Z,30
2018-10-07T18:37:06.000Z,30
2018-10-07T18:39:06.000Z,30
2018-10-07T18:40:05.000Z,30
2018-10-07T18:42:05.000Z,30
2018-10-07T18:43:05.000Z,30
2018-10-07T18:44:05.000Z,30
2018-10-07T18:45:05.000Z,30.1
2018-10-07T18:46:05.000Z,30.1
2018-10-07T18:48:05.000Z,30.1
2018-10-07T18:49:50.000Z,30.1
2018-10-07T18:51:05.000Z,30
2018-10-07T18:53:05.000Z,30
2018-10-07T18:54:05.000Z,29.9
2018-10-07T18:55:50.000Z,30
2018-10-07T18:57:05.000Z,29.9
2018-10-07T18:58:50.000Z,29.9
2018-10-07T19:00:05.000Z,29.9
2018-10-07T19:01:05.000Z,29.9
2018-10-07T19:03:05.000Z,29.9
2018-10-07T19:05:05.000Z,29.9
2018-10-07T19:06:05.000Z,29.9
2018-10-07T19:08:05.000Z,29.9
2018-10-07T19:10:05.000Z,29.8
2018-10-07T19:12:05.000Z,29.8
2018-10-07T19:14:05.000Z,29.8
2018-10-07T19:15:05.000Z,29.8
2018-10-07T19:17:05.000Z,29.8
2018-10-07T19:19:05.000Z,29.7
2018-10-07T19:21:05.000Z,29.7
2018-10-07T19:23:05.000Z,29.6
2018-10-07T19:25:05.000Z,29.6
2018-10-07T19:26:05.000Z,29.6
2018-10-07T19:27:05.000Z,29.7
2018-10-07T19:28:05.000Z,29.8
2018-10-07T19:30:05.000Z,29.8
2018-10-07T19:31:05.000Z,29.8
2018-10-07T19:33:05.000Z,29.9
2018-10-07T19:35:05.000Z,29.8
2018-10-07T19:36:05.000Z,29.8
2018-10-07T19:37:50.000Z,29.8
2018-10-07T19:39:05.000Z,29.8
2018-10-07T19:41:05.000Z,29.8
2018-10-07T19:42:05.000Z,29.8
2018-10-07T19:44:05.000Z,29.8
2018-10-07T19:45:05.000Z,29.7
2018-10-07T19:46:50.000Z,29.8
2018-10-07T19:48:05.000Z,29.8
2018-10-07T19:49:05.000Z,29.8
2018-10-07T19:51:05.000Z,29.8
2018-10-07T19:52:05.000Z,29.8
2018-10-07T19:54:05.000Z,29.8
2018-10-07T19:55:05.000Z,29.8
2018-10-07T19:57:05.000Z,29.8
2018-10-07T19:59:05.000Z,29.8
2018-10-07T20:00:05.000Z,29.8
2018-10-07T20:02:05.000Z,29.8
2018-10-07T20:03:05.000Z,29.8
2018-10-07T20:04:05.000Z,29.8
2018-10-07T20:06:05.000Z,29.9
2018-10-07T20:07:05.000Z,29.9
2018-10-07T20:09:05.000Z,29.9
2018-10-07T20:10:05.000Z,29.9
2018-10-07T20:12:05.000Z,29.9
2018-10-07T20:14:05.000Z,29.8
2018-10-07T20:15:05.000Z,29.8
2018-10-07T20:17:05.000Z,29.8
2018-10-07T20:18:50.000Z,29.8
2018-10-07T20:20:05.000Z,29.7
2018-10-07T20:22:05.000Z,29.7
2018-10-07T20:24:05.000Z,29.7
2018-10-07T20:25:05.000Z,29.7
2018-10-07T20:27:05.000Z,29.7
2018-10-07T20:29:05.000Z,29.6
2018-10-07T20:31:05.000Z,29.5
2018-10-07T20:32:05.000Z,29.5
2018-10-07T20:34:05.000Z,29.5
2018-10-07T20:36:05.000Z,29.6
2018-10-07T20:37:50.000Z,29.6
2018-10-07T20:39:05.000Z,29.6
2018-10-07T20:41:05.000Z,29.6
2018-10-07T20:43:05.000Z,29.5
2018-10-07T20:44:05.000Z,29.5
2018-10-07T20:45:05.000Z,29.5
2018-10-07T20:47:05.000Z,29.6
2018-10-07T20:48:50.000Z,29.6
2018-10-07T20:50:06.000Z,29.6
2018-10-07T20:52:06.000Z,29.5